»·PEaware :: QXE2365 KALW-KSEA

QXE2365 :: KALW-KSEA

FLIGHT INFORMATION

Flight Status: Arrived
Operator:
Horizon Air
More flights by this operator :: More flights under this callsign
Pilot: Adlai G. (28854)
Aircraft: DEHAVILLAND DASH 8 400
(DH8D)
More flights by this aircraft type
Origin: KALW Walla Walla Regl
United States
Destination: KSEA Seattle-Tacoma Intl
United States
More flights between these airports :: More routes between these airports
Route: ALW PSC V204 YKM V4 CHINS CHINS4
File this flight plan on PilotEdge
Remarks: Continuation of 2365 PUW-ALW
Altitude:
(Current/Filed)
22,000ft
Speed:
(Current/Filed)
365kts
Departed: 18-May-20 05:37 PM
Arrived: 18-May-20 06:19 PM
Distance/Time
Traveled:
184nm/0:42
Distance/Time
To Go:
Arrived

Flight Plot

Page will automatically refresh every two minutes.

Flight plan parsing failed; only flown route is shown


Map Options




Map Legend


Flown Route
Filed Route
Departure Airport
Arrival Airport
Navaid (VOR, NDB)
Fix

Horizontal Profiles

Position Reports

Time Latitude Longitude Heading Altitude Ground
Speed
18-May-20 17:11 46.088160 -118.285052 211 1198ft 0kts
18-May-20 17:12 46.088160 -118.285052 211 1198ft 0kts
18-May-20 17:13 46.088160 -118.285052 211 1198ft 0kts
18-May-20 17:14 46.088160 -118.285052 211 1198ft 0kts
18-May-20 17:15 46.088160 -118.285052 211 1198ft 0kts
18-May-20 17:16 46.088160 -118.285052 211 1198ft 0kts
18-May-20 17:17 46.088160 -118.285052 211 1198ft 0kts
18-May-20 17:18 46.088160 -118.285052 211 1198ft 0kts
18-May-20 17:19 46.088160 -118.285052 211 1198ft 0kts
18-May-20 17:20 46.088160 -118.285052 211 1198ft 0kts
18-May-20 17:21 46.088160 -118.285052 211 1198ft 0kts
18-May-20 17:22 46.088160 -118.285052 211 1198ft 0kts
18-May-20 17:23 46.088160 -118.285052 211 1198ft 0kts
18-May-20 17:24 46.088160 -118.285052 211 1198ft 0kts
18-May-20 17:25 46.088160 -118.285052 211 1198ft 0kts
18-May-20 17:26 46.088160 -118.285052 211 1198ft 0kts
18-May-20 17:27 46.088160 -118.285052 211 1198ft 0kts
18-May-20 17:28 46.088160 -118.285052 211 1198ft 0kts
18-May-20 17:29 46.088163 -118.285049 211 1198ft 0kts
18-May-20 17:30 46.088164 -118.285049 211 1198ft 0kts
18-May-20 17:31 46.087915 -118.286543 265 1198ft 0kts
18-May-20 17:32 46.090729 -118.283582 36 1198ft 29kts
18-May-20 17:33 46.096739 -118.277223 36 1198ft 17kts
18-May-20 17:34 46.098510 -118.276173 359 1198ft 0kts
18-May-20 17:35 46.099196 -118.276934 271 1198ft 9kts
18-May-20 17:36 46.087667 -118.289149 217 1606ft 132kts
18-May-20 17:37 46.068565 -118.340324 298 4335ft 197kts
18-May-20 17:38 46.107296 -118.403630 299 6912ft 240kts
18-May-20 17:39 46.134056 -118.492877 285 9307ft 251kts
18-May-20 17:40 46.157387 -118.592396 283 11103ft 264kts
18-May-20 17:41 46.177330 -118.694546 284 13077ft 261kts
18-May-20 17:42 46.199566 -118.794243 284 14783ft 263kts
18-May-20 17:43 46.221751 -118.895530 283 16288ft 266kts
18-May-20 17:44 46.244469 -118.998132 283 17707ft 269kts
18-May-20 17:45 46.266807 -119.101362 282 19054ft 271kts
18-May-20 17:46 46.290282 -119.204939 283 20311ft 272kts
18-May-20 17:47 46.314822 -119.310537 281 21193ft 285kts
18-May-20 17:48 46.341439 -119.420962 284 21857ft 302kts
18-May-20 17:49 46.366574 -119.542147 280 21839ft 326kts
18-May-20 17:50 46.395025 -119.670504 282 21838ft 342kts
18-May-20 17:51 46.424532 -119.803840 282 21837ft 354kts
18-May-20 17:52 46.455846 -119.941024 284 21838ft 362kts
18-May-20 17:53 46.487605 -120.079925 284 21850ft 363kts
18-May-20 17:54 46.519186 -120.220582 285 21852ft 370kts
18-May-20 17:55 46.552012 -120.361161 284 21853ft 367kts
18-May-20 17:56 46.593592 -120.497607 304 21854ft 373kts
18-May-20 17:57 46.653735 -120.618676 303 21850ft 367kts
18-May-20 17:58 46.711402 -120.740278 302 21145ft 365kts
18-May-20 17:59 46.769037 -120.862816 304 19355ft 366kts
18-May-20 18:00 46.826613 -120.984799 305 17603ft 362kts
18-May-20 18:01 46.882982 -121.104464 305 15905ft 355kts
18-May-20 18:02 46.938215 -121.222445 305 14197ft 346kts
18-May-20 18:03 46.991486 -121.336657 304 12521ft 331kts
18-May-20 18:04 47.040431 -121.442505 304 10477ft 299kts
18-May-20 18:05 47.085680 -121.540512 304 9983ft 283kts
18-May-20 18:06 47.129733 -121.636212 304 9971ft 283kts
18-May-20 18:07 47.173573 -121.731733 304 9267ft 281kts
18-May-20 18:08 47.216685 -121.826143 304 8264ft 272kts
18-May-20 18:09 47.228938 -121.926692 255 6998ft 262kts
18-May-20 18:10 47.210446 -122.029348 256 5499ft 255kts
18-May-20 18:11 47.229042 -122.113697 326 3990ft 231kts
18-May-20 18:12 47.265400 -122.182527 286 2489ft 216kts
18-May-20 18:13 47.291899 -122.257392 307 1993ft 199kts
18-May-20 18:14 47.333282 -122.302496 342 1997ft 178kts
18-May-20 18:15 47.374588 -122.308010 357 1439ft 122kts
18-May-20 18:17 47.407761 -122.308151 357 888ft 119kts
18-May-20 18:18 47.439547 -122.307955 359 441ft 78kts
18-May-20 18:19 47.443591 -122.306661 88 440ft 0kts
18-May-20 18:20 47.443259 -122.304747 89 440ft 11kts
18-May-20 18:21 47.443887 -122.304155 359 440ft 0kts
18-May-20 18:22 47.443887 -122.304155 359 440ft 0kts
18-May-20 18:23 47.443887 -122.304155 359 440ft 0kts
18-May-20 18:24 47.443887 -122.304155 359 440ft 0kts
18-May-20 18:25 47.443887 -122.304155 359 440ft 0kts
18-May-20 18:26 47.443887 -122.304155 359 440ft 0kts

Navigation Log

Ident Type
Flight plan parsing failed, navigation log unavailable